Canova, South Dakota
Current Conditions -  °F | °C
As of 10:10 PM on Monday 22 Dec 2014 (Local Time) from KMDS Reporting Station
Light Rain Light Rain  
Wind Chill: 26°   Ceiling: 300
Heat Index: 34°   Visibility: 2mi
Dew Point: 34°   Wind: 9mph
Humidity: 100%   Direction: 90°E
Pressure: 29.5"   Gusts: NA
Location:  43.88°N, 97.5°W
Report Text: KMDS 230410Z AUTO 09008KT 2SM -RA OVC003 01/01 A2950 RMK AO2
Loading
Personal Weather Stations






























Interactive Weather Map New forecast layout! Learn more

10-Day Weather Forecast

Advertisements
Track Severe Weather on mobile